Time;durP1;ratioP1;P1;durP2;ratioP2;P2;SDS_P1;SDS_P2;PMS_P1;PMS_P2;Temp;Humidity;BMP_temperature;BMP_pressure;BME280_temperature;BME280_humidity;BME280_pressure;Samples;Min_cycle;Max_cycle;Signal;HPM_P1;HPM_P2
2022/08/01 00:00:29;;;;;;;23.70;11.23;;;;;;;18.95;100.00;101459.16;5026751;28;20033;-75
2022/08/01 00:02:54;;;;;;;23.15;12.13;;;;;;;18.92;100.00;101465.75;5026733;28;20029;-75
2022/08/01 00:05:19;;;;;;;25.08;11.23;;;;;;;18.95;100.00;101459.16;5020027;28;20044;-75
2022/08/01 00:07:45;;;;;;;23.20;11.50;;;;;;;18.94;100.00;101474.59;5031760;28;20030;-75
2022/08/01 00:10:12;;;;;;;24.55;10.80;;;;;;;18.93;100.00;101472.03;5030051;28;20025;-76
2022/08/01 00:12:38;;;;;;;24.30;13.60;;;;;;;18.91;100.00;101461.28;5030384;28;20033;-76
2022/08/01 00:15:05;;;;;;;24.23;11.80;;;;;;;18.91;100.00;101469.47;5028031;28;20033;-76
2022/08/01 00:17:31;;;;;;;24.83;11.68;;;;;;;18.91;100.00;101468.63;5011687;28;20038;-76
2022/08/01 00:19:56;;;;;;;25.98;12.95;;;;;;;18.90;100.00;101465.03;5011839;28;20052;-76
2022/08/01 00:22:21;;;;;;;28.25;12.73;;;;;;;18.90;100.00;101464.19;5027024;28;20034;-76
2022/08/01 00:24:47;;;;;;;28.48;12.70;;;;;;;18.89;100.00;101473.34;5029684;28;20052;-76
2022/08/01 00:27:12;;;;;;;28.45;13.40;;;;;;;18.89;100.00;101465.19;5031678;28;20034;-76
2022/08/01 00:29:37;;;;;;;28.73;13.18;;;;;;;18.89;100.00;101471.50;5032243;28;20067;-76
2022/08/01 00:32:03;;;;;;;26.52;12.43;;;;;;;18.88;100.00;101469.78;5033640;28;20029;-76
2022/08/01 00:34:28;;;;;;;25.85;13.45;;;;;;;18.91;100.00;101474.06;5033077;28;20037;-76
2022/08/01 00:36:53;;;;;;;29.52;13.10;;;;;;;18.89;100.00;101468.78;5034105;28;20496;-76
2022/08/01 00:39:19;;;;;;;26.38;13.27;;;;;;;18.89;100.00;101470.63;5034625;28;20052;-76
2022/08/01 00:41:44;;;;;;;25.80;12.10;;;;;;;18.89;100.00;101471.50;5034527;28;20037;-76
2022/08/01 00:44:09;;;;;;;25.90;12.77;;;;;;;18.90;100.00;101475.06;5015162;28;20030;-76
2022/08/01 00:46:34;;;;;;;29.40;12.60;;;;;;;18.90;100.00;101472.34;5026864;28;20047;-76
2022/08/01 00:49:01;;;;;;;25.38;13.20;;;;;;;18.88;100.00;101475.22;5033270;28;20116;-76
2022/08/01 00:51:26;;;;;;;27.25;13.70;;;;;;;18.89;100.00;101478.78;5028150;28;20025;-76
2022/08/01 00:53:53;;;;;;;25.05;13.10;;;;;;;18.86;100.00;101478.09;5034432;28;20040;-76
2022/08/01 00:56:20;;;;;;;26.88;13.20;;;;;;;18.85;100.00;101479.06;5023702;28;20117;-76
2022/08/01 00:58:46;;;;;;;25.52;12.73;;;;;;;18.86;100.00;101483.53;5018495;28;20065;-76
2022/08/01 01:01:12;;;;;;;26.75;12.50;;;;;;;18.86;100.00;101479.97;5022163;28;20128;-76
2022/08/01 01:03:37;;;;;;;26.95;14.20;;;;;;;18.88;100.00;101477.94;5031876;28;20031;-76
2022/08/01 01:06:30;;;;;;;27.52;15.43;;;;;;;18.88;100.00;101475.22;5025877;28;20029;-76
2022/08/01 01:09:17;;;;;;;26.02;13.57;;;;;;;18.87;100.00;101481.66;5018149;28;20023;-76
2022/08/01 01:11:58;;;;;;;25.75;13.95;;;;;;;18.84;100.00;101484.66;5040199;28;20034;-76
2022/08/01 01:14:50;;;;;;;28.95;14.63;;;;;;;18.82;100.00;101482.09;5013527;28;20026;-76
2022/08/01 01:17:21;;;;;;;28.75;14.25;;;;;;;18.82;100.00;101481.25;5043223;28;20033;-76
2022/08/01 01:19:50;;;;;;;28.08;13.30;;;;;;;18.83;100.00;101486.53;5032494;28;20473;-76
2022/08/01 01:22:27;;;;;;;;;;;;;;;18.90;100.00;101477.78;5034406;28;20076;-76
2022/08/01 01:24:54;;;;;;;32.42;15.90;;;;;;;18.85;100.00;101476.34;5033973;28;19912;-76
2022/08/01 01:27:36;;;;;;;26.95;14.27;;;;;;;18.84;100.00;101479.22;5032562;28;20041;-76
2022/08/01 01:30:02;;;;;;;26.65;14.95;;;;;;;18.83;100.00;101478.38;5029273;28;20046;-76
2022/08/01 01:32:37;;;;;;;27.60;14.68;;;;;;;18.82;100.00;101483.97;5030887;28;20041;-76
2022/08/01 01:35:07;;;;;;;29.48;14.85;;;;;;;18.79;100.00;101468.78;5032861;28;20105;-76
2022/08/01 01:37:35;;;;;;;29.23;15.45;;;;;;;18.79;100.00;101466.06;5032160;28;20036;-76
2022/08/01 01:40:03;;;;;;;29.17;14.30;;;;;;;18.78;100.00;101466.22;5033763;28;20079;-76
2022/08/01 01:42:30;;;;;;;25.17;13.60;;;;;;;18.75;100.00;101470.09;5031984;28;20029;-76
2022/08/01 01:44:57;;;;;;;28.73;13.93;;;;;;;18.75;100.00;101471.97;5033433;28;20033;-76
2022/08/01 01:47:23;;;;;;;26.08;12.63;;;;;;;18.74;100.00;101478.41;5031764;28;20079;-76
2022/08/01 01:49:50;;;;;;;26.27;13.02;;;;;;;18.71;100.00;101465.94;5030143;28;20022;-76
2022/08/01 01:52:18;;;;;;;27.70;13.35;;;;;;;18.68;100.00;101464.41;5029186;28;20482;-76
2022/08/01 01:54:47;;;;;;;26.67;13.05;;;;;;;18.69;100.00;101473.41;5033073;28;20029;-76
2022/08/01 01:57:14;;;;;;;;;;;;;;;18.76;100.00;101469.09;5014402;28;20025;-76
2022/08/01 01:59:40;;;;;;;27.98;12.68;;;;;;;18.69;100.00;101470.69;5013365;28;20011;-76
2022/08/01 02:02:08;;;;;;;26.60;12.80;;;;;;;18.67;100.00;101475.44;5026713;28;21077;-76
2022/08/01 02:04:37;;;;;;;24.92;11.82;;;;;;;18.64;100.00;101473.03;5045412;28;20027;-76
2022/08/01 02:07:05;;;;;;;25.45;12.23;;;;;;;18.62;100.00;101469.59;5028821;28;20395;-76
2022/08/01 02:09:33;;;;;;;24.95;12.13;;;;;;;18.59;100.00;101473.44;5024924;28;20112;-76
2022/08/01 02:12:00;;;;;;;23.80;11.63;;;;;;;18.58;100.00;101471.75;5032983;28;20029;-76
2022/08/01 02:14:27;;;;;;;25.02;12.05;;;;;;;18.56;100.00;101475.63;5033032;28;20029;-76
2022/08/01 02:16:57;;;;;;;24.60;11.00;;;;;;;18.56;100.00;101470.19;5031037;28;20382;-76
2022/08/01 02:19:22;;;;;;;23.33;11.65;;;;;;;18.56;100.00;101470.19;5032365;28;20036;-76
2022/08/01 02:22:11;;;;;;;24.75;11.45;;;;;;;18.56;100.00;101465.59;5026306;28;20029;-76
2022/08/01 02:24:49;;;;;;;24.92;12.70;;;;;;;18.55;100.00;101465.75;5046199;28;20034;-76
2022/08/01 02:27:25;;;;;;;23.15;11.45;;;;;;;18.53;100.00;101465.91;5031136;28;20108;-76
2022/08/01 02:29:55;;;;;;;29.05;12.32;;;;;;;18.51;100.00;101467.91;5032622;28;20046;-76
2022/08/01 02:32:27;;;;;;;23.00;11.00;;;;;;;18.48;100.00;101469.06;5031347;28;20029;-76
2022/08/01 02:34:56;;;;;;;26.33;13.05;;;;;;;18.46;100.00;101473.81;5033067;28;20052;-76
2022/08/01 02:37:23;;;;;;;25.42;13.23;;;;;;;18.48;100.00;101473.66;5023883;28;20022;-76
2022/08/01 02:39:52;;;;;;;29.17;13.35;;;;;;;18.46;100.00;101475.66;5027415;28;20034;-76
2022/08/01 02:42:18;;;;;;;24.40;11.82;;;;;;;18.45;100.00;101469.38;5031937;28;20072;-76
2022/08/01 02:44:46;;;;;;;25.17;12.43;;;;;;;18.46;100.00;101473.81;5030290;28;20288;-76
2022/08/01 02:47:12;;;;;;;25.23;11.93;;;;;;;18.46;100.00;101471.09;5030399;28;20032;-76
2022/08/01 02:49:43;;;;;;;24.25;11.73;;;;;;;18.47;100.00;101471.94;5030588;28;20028;-76
2022/08/01 02:52:11;;;;;;;25.95;12.70;;;;;;;18.45;100.00;101471.25;5012551;28;20097;-76
2022/08/01 02:54:40;;;;;;;25.57;13.13;;;;;;;18.45;100.00;101479.41;5040600;28;20060;-76
2022/08/01 02:57:07;;;;;;;26.60;12.77;;;;;;;18.45;100.00;101477.53;5019092;28;20310;-76
2022/08/01 02:59:35;;;;;;;28.42;14.10;;;;;;;18.45;100.00;101479.41;5011388;28;20022;-76
2022/08/01 03:02:01;;;;;;;26.60;12.85;;;;;;;18.44;100.00;101478.53;5025486;28;20048;-76
2022/08/01 03:04:27;;;;;;;24.85;13.10;;;;;;;18.45;100.00;101477.53;5030235;28;20052;-76
2022/08/01 03:06:55;;;;;;;26.38;12.52;;;;;;;18.42;100.00;101480.56;5027943;28;20029;-76
2022/08/01 03:09:21;;;;;;;23.95;12.48;;;;;;;18.42;100.00;101472.41;5031477;28;20037;-76
2022/08/01 03:11:49;;;;;;;26.13;13.10;;;;;;;18.41;100.00;101476.13;5023987;28;20033;-76
2022/08/01 03:14:16;;;;;;;28.77;13.52;;;;;;;18.42;100.00;101472.41;5020738;28;20374;-76
2022/08/01 03:16:45;;;;;;;26.50;14.13;;;;;;;18.42;100.00;101469.69;5031422;28;20408;-76
2022/08/01 03:19:13;;;;;;;25.42;13.30;;;;;;;18.44;100.00;101475.81;5032543;28;20428;-76
2022/08/01 03:21:40;;;;;;;25.80;13.10;;;;;;;18.46;100.00;101483.81;5013786;28;20028;-76
2022/08/01 03:24:07;;;;;;;26.02;13.52;;;;;;;18.45;100.00;101490.31;5029982;28;20052;-76
2022/08/01 03:26:35;;;;;;;27.98;13.73;;;;;;;18.43;100.00;101482.25;5030180;28;20484;-76
2022/08/01 03:29:09;;;;;;;28.75;12.88;;;;;;;18.44;100.00;101483.97;5031929;28;20051;-76
2022/08/01 03:31:36;;;;;;;27.67;14.60;;;;;;;18.41;100.00;101484.28;5031184;28;20040;-76
2022/08/01 03:34:02;;;;;;;30.75;13.90;;;;;;;18.40;100.00;101477.13;5031886;28;20390;-76
2022/08/01 03:36:29;;;;;;;29.25;14.45;;;;;;;18.41;100.00;101481.56;5030262;28;20477;-76
2022/08/01 03:38:57;;;;;;;29.17;13.77;;;;;;;18.40;100.00;101482.56;5031376;28;20033;-76
2022/08/01 03:41:27;;;;;;;26.70;14.25;;;;;;;18.41;100.00;101476.13;5030377;28;20462;-76
2022/08/01 03:44:05;;;;;;;27.83;14.38;;;;;;;18.43;100.00;101484.97;5030492;28;20028;-76
2022/08/01 03:46:42;;;;;;;27.60;14.55;;;;;;;18.44;100.00;101477.69;5029787;28;20056;-76
2022/08/01 03:49:14;;;;;;;26.52;13.70;;;;;;;18.43;100.00;101484.13;5031303;28;20033;-76
2022/08/01 03:51:40;;;;;;;30.05;14.07;;;;;;;18.41;100.00;101484.28;5014884;28;20108;-76
2022/08/01 03:54:08;;;;;;;26.70;13.55;;;;;;;18.42;100.00;101486.00;5031091;28;20033;-76
2022/08/01 03:56:34;;;;;;;27.05;12.65;;;;;;;18.43;100.00;101486.84;5029847;28;20119;-76
2022/08/01 03:59:02;;;;;;;25.80;14.00;;;;;;;18.41;100.00;101478.84;5030409;28;20018;-76
2022/08/01 04:01:30;;;;;;;24.33;12.35;;;;;;;18.41;100.00;101478.84;5027850;28;20030;-76
2022/08/01 04:03:57;;;;;;;27.23;14.20;;;;;;;18.39;100.00;101480.84;5027720;28;20025;-76
2022/08/01 04:06:23;;;;;;;26.80;14.68;;;;;;;18.39;100.00;101486.31;5028959;28;20371;-76
2022/08/01 04:08:55;;;;;;;27.15;15.85;;;;;;;18.39;100.00;101485.44;5025321;28;20029;-76
2022/08/01 04:11:22;;;;;;;26.00;13.73;;;;;;;18.39;100.00;101486.31;5035695;28;20029;-76
2022/08/01 04:13:48;;;;;;;29.05;12.80;;;;;;;18.40;100.00;101492.59;5033365;28;20366;-76
2022/08/01 04:16:13;;;;;;;28.15;14.15;;;;;;;18.37;100.00;101491.03;5030565;28;20082;-76
2022/08/01 04:18:38;;;;;;;24.35;12.30;;;;;;;18.38;100.00;101494.63;5030682;28;20034;-76
2022/08/01 04:21:04;;;;;;;27.88;13.23;;;;;;;18.37;100.00;101491.03;5015550;28;20033;-76
2022/08/01 04:23:31;;;;;;;28.55;13.43;;;;;;;18.37;100.00;101499.19;5021951;28;20030;-76
2022/08/01 04:25:59;;;;;;;29.35;13.40;;;;;;;18.38;100.00;101500.91;5032923;28;20090;-76
2022/08/01 04:28:25;;;;;;;25.77;12.95;;;;;;;18.37;100.00;101504.63;5030574;28;20474;-76
2022/08/01 04:30:53;;;;;;;27.92;12.88;;;;;;;18.37;100.00;101499.19;5025041;28;20034;-76
2022/08/01 04:33:20;;;;;;;28.38;13.85;;;;;;;18.37;100.00;101498.34;5032036;28;20083;-76
2022/08/01 04:35:48;;;;;;;24.35;11.85;;;;;;;18.37;100.00;101490.16;5034644;28;20095;-76
2022/08/01 04:38:19;;;;;;;27.50;13.50;;;;;;;18.36;100.00;101505.66;5034334;28;20034;-76
2022/08/01 04:40:45;;;;;;;29.88;15.88;;;;;;;18.37;100.00;101503.78;5035436;28;20500;-76
2022/08/01 04:43:12;;;;;;;27.50;14.13;;;;;;;18.36;100.00;101492.03;5033979;28;20068;-76
2022/08/01 04:45:38;;;;;;;30.45;14.45;;;;;;;18.33;100.00;101503.19;5032419;28;20048;-76
2022/08/01 04:48:06;;;;;;;28.20;13.73;;;;;;;18.35;100.00;101517.53;5034619;28;20029;-76
2022/08/01 04:50:32;;;;;;;29.58;14.13;;;;;;;18.36;100.00;101521.97;5026513;28;20050;-76
2022/08/01 04:52:57;;;;;;;28.77;14.88;;;;;;;18.36;100.00;101524.69;5015521;28;20060;-76
2022/08/01 04:55:22;;;;;;;26.80;14.02;;;;;;;18.37;100.00;101526.41;5025439;28;20455;-76
2022/08/01 04:57:48;;;;;;;31.30;15.05;;;;;;;18.39;100.00;101518.09;5033529;28;20436;-76
2022/08/01 05:00:16;;;;;;;26.88;13.13;;;;;;;18.40;100.00;101531.53;5026990;28;20029;-76
2022/08/01 05:02:41;;;;;;;28.88;14.85;;;;;;;18.39;100.00;101521.69;5031681;28;20029;-76
2022/08/01 05:05:07;;;;;;;27.65;14.25;;;;;;;18.39;100.00;101537.13;5031142;28;20028;-76
2022/08/01 05:07:33;;;;;;;28.88;13.48;;;;;;;18.38;100.00;101539.00;5031688;28;20274;-76
2022/08/01 05:09:58;;;;;;;25.85;13.45;;;;;;;18.39;100.00;101543.47;5034079;28;20021;-73
2022/08/01 05:12:23;;;;;;;26.67;13.68;;;;;;;18.41;100.00;101543.31;5031439;28;20036;-74
2022/08/01 05:14:49;;;;;;;29.02;13.50;;;;;;;18.43;100.00;101547.56;5031835;28;20048;-74
2022/08/01 05:17:14;;;;;;;27.20;13.55;;;;;;;18.45;100.00;101545.59;5032405;28;20036;-74
2022/08/01 05:19:40;;;;;;;26.00;12.98;;;;;;;18.45;100.00;101540.13;5030873;28;20024;-74
2022/08/01 05:22:07;;;;;;;25.48;13.00;;;;;;;18.48;100.00;101542.56;5028230;28;20091;-74
2022/08/01 05:24:35;;;;;;;23.98;10.95;;;;;;;18.47;100.00;101545.44;5025060;28;20044;-74
2022/08/01 05:27:00;;;;;;;24.33;11.05;;;;;;;18.50;100.00;101548.69;5033776;28;20064;-75
2022/08/01 05:29:26;;;;;;;24.92;11.65;;;;;;;18.48;100.00;101545.28;5020496;28;20136;-75
2022/08/01 05:31:52;;;;;;;23.50;10.73;;;;;;;18.49;100.00;101554.28;5038065;28;20071;-75
2022/08/01 05:34:18;;;;;;;22.65;10.18;;;;;;;18.51;100.00;101555.88;5025219;28;20096;-74
2022/08/01 05:36:44;;;;;;;24.55;10.90;;;;;;;18.52;100.00;101554.88;5022993;28;20033;-75
2022/08/01 05:39:10;;;;;;;21.70;9.73;;;;;;;18.54;100.00;101543.84;5022626;28;20032;-74
2022/08/01 05:41:36;;;;;;;25.70;10.70;;;;;;;18.55;100.00;101545.56;5022272;28;20143;-74
2022/08/01 05:44:03;;;;;;;25.65;10.73;;;;;;;18.57;100.00;101543.53;5021271;28;20486;-75
2022/08/01 05:46:30;;;;;;;22.13;8.82;;;;;;;18.58;100.00;101549.84;5021340;28;20045;-75
2022/08/01 05:48:55;;;;;;;23.45;9.50;;;;;;;18.57;99.43;101540.81;5023207;28;20358;-74
2022/08/01 05:51:21;;;;;;;20.98;8.88;;;;;;;18.58;99.52;101549.84;5022709;28;20041;-74
2022/08/01 05:53:47;;;;;;;20.48;7.95;;;;;;;18.56;99.14;101541.81;5022888;28;20030;-75
2022/08/01 05:56:12;;;;;;;22.65;9.07;;;;;;;18.57;99.33;101545.41;5020981;28;20040;-75
2022/08/01 05:58:37;;;;;;;22.23;8.73;;;;;;;18.57;99.27;101553.59;5024509;28;20041;-75
2022/08/01 06:01:02;;;;;;;21.02;8.80;;;;;;;18.59;99.64;101555.13;5023014;28;20603;-75
2022/08/01 06:03:30;;;;;;;21.10;8.68;;;;;;;18.61;100.00;101555.84;5026215;28;20409;-75
2022/08/01 06:05:57;;;;;;;23.25;10.23;;;;;;;18.65;100.00;101550.97;5023837;28;20033;-75
2022/08/01 06:08:23;;;;;;;23.83;9.90;;;;;;;18.66;100.00;101561.69;5027650;28;20080;-75
2022/08/01 06:10:48;;;;;;;23.98;9.32;;;;;;;18.69;100.00;101555.09;5024936;28;20545;-75
2022/08/01 06:13:14;;;;;;;22.48;9.20;;;;;;;18.69;99.64;101552.38;5023403;28;20052;-75
2022/08/01 06:15:39;;;;;;;22.10;8.93;;;;;;;18.71;99.55;101546.78;5027117;28;20036;-75
2022/08/01 06:18:05;;;;;;;22.15;9.20;;;;;;;18.74;99.25;101550.09;5026053;28;20029;-75
2022/08/01 06:20:30;;;;;;;21.45;8.10;;;;;;;18.74;98.38;101550.09;5024030;28;20535;-74
2022/08/01 06:22:56;;;;;;;20.52;8.40;;;;;;;18.75;98.39;101557.22;5026768;28;20033;-75
2022/08/01 06:25:21;;;;;;;19.80;7.03;;;;;;;18.78;98.43;101561.53;5022430;28;20389;-75
2022/08/01 06:27:46;;;;;;;20.65;7.47;;;;;;;18.78;97.51;101554.19;5027174;28;20030;-75
2022/08/01 06:30:12;;;;;;;22.67;7.93;;;;;;;18.81;97.44;101555.78;5026485;28;20041;-75
2022/08/01 06:32:37;;;;;;;20.55;7.88;;;;;;;18.81;97.98;101555.78;5027452;28;20061;-75
2022/08/01 06:35:03;;;;;;;20.33;7.72;;;;;;;18.83;98.82;101559.22;5026064;28;20029;-75
2022/08/01 06:37:32;;;;;;;22.50;8.10;;;;;;;18.80;96.93;101560.38;5029019;28;20095;-75
2022/08/01 06:40:11;;;;;;;21.73;7.82;;;;;;;18.82;97.42;101563.78;5028909;28;20362;-75
2022/08/01 06:42:37;;;;;;;20.33;7.32;;;;;;;18.83;98.36;101564.69;5026739;28;20064;-75
2022/08/01 06:45:06;;;;;;;21.48;7.28;;;;;;;18.84;98.33;101569.97;5027418;28;20449;-75
2022/08/01 06:47:32;;;;;;;20.95;7.57;;;;;;;18.84;97.23;101567.25;5043263;28;20033;-75
2022/08/01 06:49:57;;;;;;;19.88;7.35;;;;;;;18.85;97.33;101568.94;5025490;28;20025;-75
2022/08/01 06:52:23;;;;;;;21.67;7.45;;;;;;;18.88;97.89;101573.28;5028004;28;20033;-75
2022/08/01 06:54:48;;;;;;;19.80;6.82;;;;;;;18.91;99.52;101581.13;5025715;28;20029;-75
2022/08/01 06:57:13;;;;;;;19.17;6.20;;;;;;;18.96;100.00;101575.25;5019604;28;20021;-75
2022/08/01 06:59:39;;;;;;;19.00;6.88;;;;;;;18.99;100.00;101577.66;5025523;28;20022;-75
2022/08/01 07:02:04;;;;;;;18.42;6.68;;;;;;;19.01;98.71;101576.50;5022797;28;20040;-75
2022/08/01 07:04:30;;;;;;;18.50;5.55;;;;;;;19.04;98.45;101575.34;5028334;28;20033;-75
2022/08/01 07:06:56;;;;;;;18.73;5.90;;;;;;;19.07;98.41;101575.06;5031580;28;20025;-75
2022/08/01 07:09:21;;;;;;;17.63;5.38;;;;;;;19.11;98.33;101578.34;5019570;28;20557;-75
2022/08/01 07:11:46;;;;;;;16.70;5.22;;;;;;;19.15;97.92;101577.91;5022224;28;20108;-75
2022/08/01 07:14:11;;;;;;;15.38;5.18;;;;;;;19.17;97.25;101578.59;5023713;28;20037;-74
2022/08/01 07:16:37;;;;;;;15.52;4.88;;;;;;;19.21;96.92;101577.28;5027706;28;20452;-74
2022/08/01 07:19:02;;;;;;;13.50;4.90;;;;;;;19.25;95.92;101572.38;5025602;28;20040;-74
2022/08/01 07:21:28;;;;;;;11.23;3.85;;;;;;;19.34;96.95;101576.06;5024793;28;20033;-75
2022/08/01 07:23:53;;;;;;;13.25;4.35;;;;;;;19.37;96.41;101578.47;5027664;28;20524;-75
2022/08/01 07:26:18;;;;;;;13.63;4.10;;;;;;;19.44;96.18;101584.19;5024312;28;20026;-76
2022/08/01 07:28:44;;;;;;;12.98;4.30;;;;;;;19.50;95.96;101578.13;5026385;28;20088;-76
2022/08/01 07:31:09;;;;;;;15.23;4.25;;;;;;;19.54;97.34;101585.81;5019274;28;20479;-76
2022/08/01 07:33:34;;;;;;;10.20;3.67;;;;;;;19.59;96.40;101579.94;5022491;28;20038;-76
2022/08/01 07:35:59;;;;;;;9.80;3.20;;;;;;;19.61;96.69;101587.97;5023578;28;20035;-76
2022/08/01 07:38:25;;;;;;;10.25;3.17;;;;;;;19.60;94.52;101586.25;5031192;28;20087;-76
2022/08/01 07:40:50;;;;;;;5.40;2.45;;;;;;;19.59;92.52;101593.56;5038221;28;20393;-76
2022/08/01 07:43:15;;;;;;;7.82;2.67;;;;;;;19.58;91.33;101593.69;5031503;28;20087;-76
2022/08/01 07:45:41;;;;;;;4.50;2.20;;;;;;;19.62;94.55;101597.84;5028888;28;20505;-76
2022/08/01 07:48:07;;;;;;;3.92;2.20;;;;;;;19.63;92.87;101596.84;5031287;28;20489;-76
2022/08/01 07:50:33;;;;;;;6.07;2.13;;;;;;;19.68;95.13;101599.97;5033449;28;20033;-76
2022/08/01 07:52:58;;;;;;;4.95;2.40;;;;;;;19.67;91.37;101590.91;5034099;28;20080;-76
2022/08/01 07:55:24;;;;;;;9.20;2.90;;;;;;;19.68;91.14;101592.63;5032435;28;20100;-76
2022/08/01 07:57:49;;;;;;;6.78;2.70;;;;;;;19.74;92.44;101596.63;5031690;28;20540;-76
2022/08/01 08:00:15;;;;;;;6.55;2.60;;;;;;;19.78;91.14;101595.34;5030842;28;20192;-76
2022/08/01 08:02:40;;;;;;;5.90;2.30;;;;;;;19.86;91.40;101591.81;5033418;28;20024;-77
2022/08/01 08:05:07;;;;;;;6.25;2.67;;;;;;;19.88;89.90;101598.84;5033555;28;20029;-77
2022/08/01 08:07:32;;;;;;;6.93;2.78;;;;;;;19.93;89.89;101594.78;5027629;28;20113;-77
2022/08/01 08:09:58;;;;;;;4.85;2.40;;;;;;;19.98;88.85;101593.28;5034241;28;20105;-77
2022/08/01 08:12:23;;;;;;;6.72;2.40;;;;;;;20.02;86.34;101591.13;5034141;28;20144;-77
2022/08/01 08:14:48;;;;;;;7.05;2.85;;;;;;;20.06;87.46;101603.44;5035253;28;20030;-77
2022/08/01 08:17:14;;;;;;;6.72;2.72;;;;;;;20.13;89.42;101604.50;5035261;28;20033;-77
2022/08/01 08:19:39;;;;;;;7.68;2.70;;;;;;;20.15;87.38;101602.50;5033148;28;20032;-77
2022/08/01 08:22:08;;;;;;;3.78;2.22;;;;;;;20.16;88.33;101606.06;5015471;28;20030;-77
2022/08/01 08:24:34;;;;;;;8.60;3.35;;;;;;;20.17;88.71;101600.47;5015544;28;20050;-77
2022/08/01 08:27:01;;;;;;;6.25;2.88;;;;;;;20.19;88.67;101609.34;5015445;28;20430;-77
2022/08/01 08:29:29;;;;;;;5.72;2.83;;;;;;;20.23;89.96;101602.53;5013620;28;20056;-78
2022/08/01 08:31:55;;;;;;;5.70;2.60;;;;;;;20.27;89.75;101603.09;5015366;28;20096;-77
2022/08/01 08:34:20;;;;;;;8.55;2.85;;;;;;;20.34;87.51;101603.34;5015133;28;20033;-77
2022/08/01 08:36:46;;;;;;;5.35;2.53;;;;;;;20.37;84.56;101600.28;5015314;28;20030;-77
2022/08/01 08:39:12;;;;;;;6.32;2.95;;;;;;;20.45;84.85;101603.06;5015186;28;20058;-77
2022/08/01 08:41:37;;;;;;;5.90;2.75;;;;;;;20.52;85.39;101598.69;5015178;28;20084;-77
2022/08/01 08:44:08;;;;;;;9.65;2.70;;;;;;;20.56;85.60;101601.97;5013482;28;20025;-77
2022/08/01 08:46:39;;;;;;;3.83;2.40;;;;;;;20.56;83.93;101604.69;5015071;28;20531;-77
2022/08/01 08:49:06;;;;;;;5.78;2.10;;;;;;;20.54;81.60;101598.53;5025383;28;20049;-77
2022/08/01 08:51:33;;;;;;;3.75;2.33;;;;;;;20.55;82.25;101609.28;5041460;28;20029;-76
2022/08/01 08:54:01;;;;;;;5.20;2.15;;;;;;;20.60;80.92;101611.53;5034348;28;20034;-76
2022/08/01 08:56:29;;;;;;;4.03;2.15;;;;;;;20.63;79.93;101607.63;5032060;28;20037;-76
2022/08/01 08:58:55;;;;;;;6.47;2.30;;;;;;;20.69;81.23;101612.47;5034274;28;20063;-76
2022/08/01 09:01:20;;;;;;;6.20;1.90;;;;;;;20.75;80.77;101607.25;5029400;28;20072;-76
2022/08/01 09:03:47;;;;;;;3.20;1.63;;;;;;;20.85;81.31;101603.53;5032587;28;20029;-76
2022/08/01 09:06:12;;;;;;;4.60;2.10;;;;;;;20.92;80.33;101618.25;5033420;28;20052;-76
2022/08/01 09:08:37;;;;;;;4.40;1.90;;;;;;;20.95;78.56;101607.88;5022622;28;20026;-76
2022/08/01 09:11:03;;;;;;;4.78;2.22;;;;;;;21.00;77.86;101607.38;5020770;28;20475;-76
2022/08/01 09:13:28;;;;;;;4.75;2.03;;;;;;;21.07;77.33;101613.03;5029824;28;20035;-76
2022/08/01 09:15:58;;;;;;;4.47;1.80;;;;;;;21.14;78.03;101614.09;5020650;28;20101;-76
2022/08/01 09:18:35;;;;;;;4.55;2.20;;;;;;;21.21;78.93;101623.38;5032957;28;20052;-76
2022/08/01 09:21:14;;;;;;;5.25;2.22;;;;;;;21.25;77.57;101629.38;5022432;28;20041;-75
2022/08/01 09:23:48;;;;;;;;;;;;;;;21.33;80.39;101621.19;5015118;28;20022;-76
2022/08/01 09:26:16;;;;;;;3.85;1.90;;;;;;;21.34;73.64;101622.06;5024559;28;20373;-75
2022/08/01 09:28:42;;;;;;;5.82;2.28;;;;;;;21.40;75.92;101618.66;5014239;28;20028;-75
2022/08/01 09:31:10;;;;;;;6.50;2.10;;;;;;;21.47;76.56;101625.19;5027351;28;20028;-75
2022/08/01 09:33:49;;;;;;;2.72;1.98;;;;;;;21.61;78.28;101615.50;5032695;28;20421;-75
2022/08/01 09:36:14;;;;;;;2.10;1.70;;;;;;;21.67;74.15;101622.19;5032905;28;20017;-76
2022/08/01 09:38:40;;;;;;;3.08;2.10;;;;;;;21.64;73.00;101627.00;5032688;28;20063;-76
2022/08/01 09:41:07;;;;;;;5.03;2.47;;;;;;;21.63;72.49;101622.53;5031340;28;20029;-76
2022/08/01 09:43:32;;;;;;;3.58;1.80;;;;;;;21.59;68.32;101620.31;5031339;28;20029;-76
2022/08/01 09:45:59;;;;;;;3.38;1.80;;;;;;;21.58;69.88;101629.53;5032901;28;20127;-76
2022/08/01 09:48:25;;;;;;;4.35;1.95;;;;;;;21.58;70.92;101635.00;5033601;28;20022;-76
2022/08/01 09:50:52;;;;;;;3.17;1.90;;;;;;;21.56;70.95;101632.44;5028841;28;20470;-76
2022/08/01 09:53:18;;;;;;;4.97;2.00;;;;;;;21.60;72.95;101624.75;5012765;28;20072;-76
2022/08/01 09:55:44;;;;;;;2.08;1.60;;;;;;;21.66;73.50;101625.97;5012609;28;20423;-76
2022/08/01 09:58:11;;;;;;;7.35;2.03;;;;;;;21.72;75.43;101628.03;5029137;28;20030;-76
2022/08/01 10:00:38;;;;;;;2.83;1.83;;;;;;;21.88;77.13;101636.28;5018750;28;20116;-76
2022/08/01 10:03:19;;;;;;;3.15;1.95;;;;;;;21.96;75.65;101635.44;5030450;28;20098;-75
2022/08/01 10:05:45;;;;;;;2.63;1.70;;;;;;;22.00;74.71;101632.19;5033434;28;20025;-76
2022/08/01 10:08:12;;;;;;;2.97;2.10;;;;;;;22.06;74.54;101638.03;5033414;28;20037;-76
2022/08/01 10:10:37;;;;;;;2.97;1.95;;;;;;;22.14;74.08;101638.03;5033177;28;20053;-75
2022/08/01 10:13:03;;;;;;;4.97;1.80;;;;;;;22.15;71.96;101634.25;5031684;28;20095;-76
2022/08/01 10:15:30;;;;;;;4.78;1.90;;;;;;;22.19;71.51;101638.38;5031727;28;20075;-76
2022/08/01 10:17:58;;;;;;;6.60;2.40;;;;;;;22.19;72.13;101643.84;5033161;28;20025;-76
2022/08/01 10:20:27;;;;;;;8.80;2.30;;;;;;;22.21;71.77;101641.78;5026963;28;20490;-76
2022/08/01 10:22:54;;;;;;;6.07;2.07;;;;;;;22.16;70.45;101641.44;5013459;28;20080;-76
2022/08/01 10:25:21;;;;;;;9.07;2.45;;;;;;;22.12;72.35;101642.81;5013406;28;20025;-76
2022/08/01 10:27:48;;;;;;;8.55;2.72;;;;;;;22.07;74.44;101651.53;5028451;28;20096;-75
2022/08/01 10:30:15;;;;;;;6.13;2.90;;;;;;;22.03;75.28;101643.84;5011587;28;20053;-75
2022/08/01 10:32:44;;;;;;;10.02;2.83;;;;;;;21.96;75.27;101646.38;5013101;28;20025;-76
2022/08/01 10:35:14;;;;;;;10.40;2.97;;;;;;;21.88;75.97;101649.97;5029375;28;20033;-76
2022/08/01 10:37:40;;;;;;;6.80;2.58;;;;;;;21.86;77.33;101651.16;5031839;28;20028;-75
2022/08/01 10:40:06;;;;;;;6.07;2.58;;;;;;;21.87;76.77;101645.50;5031767;28;20025;-75
2022/08/01 10:42:33;;;;;;;6.15;2.90;;;;;;;21.94;77.32;101649.28;5030445;28;20033;-76
2022/08/01 10:44:58;;;;;;;7.95;2.60;;;;;;;22.05;79.06;101652.72;5030067;28;20032;-76
2022/08/01 10:47:31;;;;;;;5.93;2.35;;;;;;;22.08;76.00;101645.03;5030179;28;20512;-76
2022/08/01 10:50:06;;;;;;;3.40;2.10;;;;;;;22.15;77.45;101643.34;5028188;28;20095;-76
2022/08/01 10:52:31;;;;;;;5.40;2.20;;;;;;;22.20;76.84;101651.03;5033141;28;20047;-76
2022/08/01 10:55:05;;;;;;;5.43;2.50;;;;;;;22.28;77.97;101659.25;5042734;28;20021;-76
2022/08/01 10:57:47;;;;;;;5.78;2.40;;;;;;;22.36;77.42;101652.09;5031033;28;20106;-76
2022/08/01 11:00:20;;;;;;;4.18;2.22;;;;;;;22.42;76.69;101659.66;5031308;28;20440;-76
2022/08/01 11:03:00;;;;;;;3.83;2.03;;;;;;;22.42;76.94;101673.34;5029353;28;20033;-76
2022/08/01 11:05:27;;;;;;;12.18;2.38;;;;;;;22.41;77.02;101666.16;5029866;28;20021;-76
2022/08/01 11:07:54;;;;;;;3.40;2.05;;;;;;;22.30;76.22;101676.38;5030846;28;20099;-77
2022/08/01 11:10:23;;;;;;;5.65;2.38;;;;;;;22.25;78.58;101677.91;5037050;28;20091;-77
2022/08/01 11:12:48;;;;;;;2.72;2.08;;;;;;;22.15;75.76;101676.19;5027834;28;20397;-76